sensor_id;sensor_type;location;lat;lon;timestamp;pressure;altitude;pressure_sealevel;temperature;humidity
58534;BME280;44109;52.398;7.024;2023-09-19T00:01:59;100381.97;;;16.35;100.00
58534;BME280;44109;52.398;7.024;2023-09-19T00:04:27;100378.75;;;16.36;100.00
58534;BME280;44109;52.398;7.024;2023-09-19T00:06:58;100381.88;;;16.42;100.00
58534;BME280;44109;52.398;7.024;2023-09-19T00:09:28;100379.84;;;16.46;100.00
58534;BME280;44109;52.398;7.024;2023-09-19T00:11:56;100380.94;;;16.52;100.00
58534;BME280;44109;52.398;7.024;2023-09-19T00:14:24;100379.41;;;16.47;100.00
58534;BME280;44109;52.398;7.024;2023-09-19T00:16:52;100387.31;;;16.53;100.00
58534;BME280;44109;52.398;7.024;2023-09-19T00:19:22;100387.25;;;16.60;100.00
58534;BME280;44109;52.398;7.024;2023-09-19T00:21:50;100396.88;;;16.59;100.00
58534;BME280;44109;52.398;7.024;2023-09-19T00:24:19;100400.53;;;16.52;100.00
58534;BME280;44109;52.398;7.024;2023-09-19T00:26:47;100400.38;;;16.36;100.00
58534;BME280;44109;52.398;7.024;2023-09-19T00:29:14;100409.97;;;16.35;100.00
58534;BME280;44109;52.398;7.024;2023-09-19T00:31:43;100420.66;;;16.43;100.00
58534;BME280;44109;52.398;7.024;2023-09-19T00:34:10;100414.50;;;16.56;100.00
58534;BME280;44109;52.398;7.024;2023-09-19T00:36:40;100409.09;;;16.41;100.00
58534;BME280;44109;52.398;7.024;2023-09-19T00:39:09;100409.84;;;16.45;100.00
58534;BME280;44109;52.398;7.024;2023-09-19T00:41:37;100413.84;;;16.44;100.00
58534;BME280;44109;52.398;7.024;2023-09-19T00:44:05;100414.66;;;16.45;100.00
58534;BME280;44109;52.398;7.024;2023-09-19T00:46:32;100414.28;;;16.39;100.00
58534;BME280;44109;52.398;7.024;2023-09-19T00:49:00;100415.63;;;16.31;100.00
58534;BME280;44109;52.398;7.024;2023-09-19T00:51:28;100419.97;;;16.36;100.00
58534;BME280;44109;52.398;7.024;2023-09-19T00:53:59;100424.09;;;16.24;100.00
58534;BME280;44109;52.398;7.024;2023-09-19T00:56:26;100430.88;;;16.27;100.00
58534;BME280;44109;52.398;7.024;2023-09-19T00:58:55;100434.81;;;16.29;100.00
58534;BME280;44109;52.398;7.024;2023-09-19T01:01:22;100424.00;;;16.31;100.00
58534;BME280;44109;52.398;7.024;2023-09-19T01:03:51;100438.78;;;16.35;100.00
58534;BME280;44109;52.398;7.024;2023-09-19T01:06:20;100433.22;;;16.32;100.00
58534;BME280;44109;52.398;7.024;2023-09-19T01:08:49;100428.81;;;16.31;100.00
58534;BME280;44109;52.398;7.024;2023-09-19T01:11:21;100433.22;;;16.32;100.00
58534;BME280;44109;52.398;7.024;2023-09-19T01:14:06;100439.56;;;16.36;100.00
58534;BME280;44109;52.398;7.024;2023-09-19T01:16:50;100455.16;;;16.33;100.00
58534;BME280;44109;52.398;7.024;2023-09-19T01:19:43;100450.00;;;16.32;100.00
58534;BME280;44109;52.398;7.024;2023-09-19T01:22:37;100457.69;;;16.24;100.00
58534;BME280;44109;52.398;7.024;2023-09-19T01:25:33;100460.56;;;16.17;100.00
58534;BME280;44109;52.398;7.024;2023-09-19T01:28:21;100454.16;;;16.16;100.00
58534;BME280;44109;52.398;7.024;2023-09-19T01:31:06;100456.91;;;16.20;100.00
58534;BME280;44109;52.398;7.024;2023-09-19T01:33:57;100458.94;;;16.19;100.00
58534;BME280;44109;52.398;7.024;2023-09-19T01:36:28;100454.16;;;16.16;100.00
58534;BME280;44109;52.398;7.024;2023-09-19T01:38:57;100463.03;;;16.08;100.00
58534;BME280;44109;52.398;7.024;2023-09-19T01:41:44;100463.09;;;16.04;100.00
58534;BME280;44109;52.398;7.024;2023-09-19T01:44:24;100465.41;;;16.13;100.00
58534;BME280;44109;52.398;7.024;2023-09-19T01:47:01;100465.84;;;16.08;100.00
58534;BME280;44109;52.398;7.024;2023-09-19T01:49:42;100475.91;;;16.02;100.00
58534;BME280;44109;52.398;7.024;2023-09-19T01:52:15;100463.94;;;15.97;100.00
58534;BME280;44109;52.398;7.024;2023-09-19T01:54:50;100468.69;;;16.04;100.00
58534;BME280;44109;52.398;7.024;2023-09-19T01:57:25;100460.69;;;16.03;100.00
58534;BME280;44109;52.398;7.024;2023-09-19T02:00:00;100460.75;;;15.99;100.00
58534;BME280;44109;52.398;7.024;2023-09-19T02:02:34;100474.31;;;16.01;100.00
58534;BME280;44109;52.398;7.024;2023-09-19T02:05:05;100469.94;;;16.00;100.00
58534;BME280;44109;52.398;7.024;2023-09-19T02:07:33;100472.88;;;15.85;100.00
58534;BME280;44109;52.398;7.024;2023-09-19T02:10:04;100472.31;;;16.01;100.00
58534;BME280;44109;52.398;7.024;2023-09-19T02:12:33;100475.91;;;16.02;100.00
58534;BME280;44109;52.398;7.024;2023-09-19T02:15:01;100477.03;;;16.08;100.00
58534;BME280;44109;52.398;7.024;2023-09-19T02:17:29;100472.66;;;16.07;100.00
58534;BME280;44109;52.398;7.024;2023-09-19T02:19:58;100479.75;;;16.15;100.00
58534;BME280;44109;52.398;7.024;2023-09-19T02:22:26;100480.66;;;16.08;100.00
58534;BME280;44109;52.398;7.024;2023-09-19T02:24:55;100481.81;;;16.11;100.00
58534;BME280;44109;52.398;7.024;2023-09-19T02:27:26;100485.41;;;16.11;100.00
58534;BME280;44109;52.398;7.024;2023-09-19T02:29:54;100497.38;;;16.12;100.00
58534;BME280;44109;52.398;7.024;2023-09-19T02:32:21;100486.78;;;15.92;100.00
58534;BME280;44109;52.398;7.024;2023-09-19T02:34:50;100493.13;;;15.96;100.00
58534;BME280;44109;52.398;7.024;2023-09-19T02:37:19;100496.31;;;15.98;100.00
58534;BME280;44109;52.398;7.024;2023-09-19T02:39:47;100495.56;;;15.94;100.00
58534;BME280;44109;52.398;7.024;2023-09-19T02:42:15;100485.50;;;16.01;100.00
58534;BME280;44109;52.398;7.024;2023-09-19T02:44:42;100496.69;;;16.01;100.00
58534;BME280;44109;52.398;7.024;2023-09-19T02:47:13;100485.63;;;15.90;100.00
58534;BME280;44109;52.398;7.024;2023-09-19T02:49:41;100482.41;;;15.91;100.00
58534;BME280;44109;52.398;7.024;2023-09-19T02:52:08;100479.66;;;15.84;100.00
58534;BME280;44109;52.398;7.024;2023-09-19T02:54:38;100480.34;;;15.99;100.00
58534;BME280;44109;52.398;7.024;2023-09-19T02:57:07;100481.84;;;16.07;100.00
58534;BME280;44109;52.398;7.024;2023-09-19T02:59:36;100490.69;;;16.02;100.00
58534;BME280;44109;52.398;7.024;2023-09-19T03:02:03;100498.25;;;16.05;100.00
58534;BME280;44109;52.398;7.024;2023-09-19T03:04:31;100493.59;;;15.91;100.00
58534;BME280;44109;52.398;7.024;2023-09-19T03:07:01;100505.09;;;16.01;100.00
58534;BME280;44109;52.398;7.024;2023-09-19T03:09:30;100506.38;;;15.92;100.00
58534;BME280;44109;52.398;7.024;2023-09-19T03:11:59;100515.16;;;15.94;100.00
58534;BME280;44109;52.398;7.024;2023-09-19T03:14:27;100510.75;;;15.93;100.00
58534;BME280;44109;52.398;7.024;2023-09-19T03:16:56;100512.31;;;15.98;100.00
58534;BME280;44109;52.398;7.024;2023-09-19T03:19:24;100521.56;;;15.91;100.00
58534;BME280;44109;52.398;7.024;2023-09-19T03:21:52;100505.22;;;15.86;100.00
58534;BME280;44109;52.398;7.024;2023-09-19T03:24:20;100508.78;;;15.90;100.00
58534;BME280;44109;52.398;7.024;2023-09-19T03:26:48;100515.97;;;15.91;100.00
58534;BME280;44109;52.398;7.024;2023-09-19T03:29:18;100512.88;;;15.79;100.00
58534;BME280;44109;52.398;7.024;2023-09-19T03:31:46;100513.66;;;15.83;100.00
58534;BME280;44109;52.398;7.024;2023-09-19T03:34:13;100511.66;;;15.80;100.00
58534;BME280;44109;52.398;7.024;2023-09-19T03:36:41;100512.50;;;15.77;100.00
58534;BME280;44109;52.398;7.024;2023-09-19T03:39:09;100510.09;;;15.75;100.00
58534;BME280;44109;52.398;7.024;2023-09-19T03:41:36;100508.19;;;15.68;100.00
58534;BME280;44109;52.398;7.024;2023-09-19T03:44:05;100521.41;;;15.57;100.00
58534;BME280;44109;52.398;7.024;2023-09-19T03:46:34;100516.22;;;15.59;100.00
58534;BME280;44109;52.398;7.024;2023-09-19T03:49:02;100515.00;;;15.64;100.00
58534;BME280;44109;52.398;7.024;2023-09-19T03:51:30;100529.91;;;15.39;100.00
58534;BME280;44109;52.398;7.024;2023-09-19T03:53:57;100499.53;;;15.45;100.00
58534;BME280;44109;52.398;7.024;2023-09-19T03:56:25;100515.47;;;15.52;100.00
58534;BME280;44109;52.398;7.024;2023-09-19T03:58:54;100517.47;;;15.47;100.00
58534;BME280;44109;52.398;7.024;2023-09-19T04:01:22;100505.03;;;15.56;100.00
58534;BME280;44109;52.398;7.024;2023-09-19T04:03:51;100504.69;;;15.54;100.00
58534;BME280;44109;52.398;7.024;2023-09-19T04:06:19;100520.28;;;15.47;100.00
58534;BME280;44109;52.398;7.024;2023-09-19T04:08:47;100510.06;;;15.27;100.00
58534;BME280;44109;52.398;7.024;2023-09-19T04:11:14;100528.28;;;15.45;100.00
58534;BME280;44109;52.398;7.024;2023-09-19T04:13:42;100516.72;;;15.43;100.00
58534;BME280;44109;52.398;7.024;2023-09-19T04:16:10;100526.78;;;15.30;100.00
58534;BME280;44109;52.398;7.024;2023-09-19T04:18:38;100514.81;;;15.30;100.00
58534;BME280;44109;52.398;7.024;2023-09-19T04:21:07;100512.41;;;15.32;100.00
58534;BME280;44109;52.398;7.024;2023-09-19T04:23:34;100526.03;;;15.26;100.00
58534;BME280;44109;52.398;7.024;2023-09-19T04:26:02;100524.47;;;15.21;100.00
58534;BME280;44109;52.398;7.024;2023-09-19T04:28:31;100526.44;;;15.21;100.00
58534;BME280;44109;52.398;7.024;2023-09-19T04:31:00;100533.22;;;15.20;100.00
58534;BME280;44109;52.398;7.024;2023-09-19T04:33:27;100528.88;;;15.15;100.00
58534;BME280;44109;52.398;7.024;2023-09-19T04:35:55;100546.91;;;15.04;100.00
58534;BME280;44109;52.398;7.024;2023-09-19T04:38:24;100551.31;;;15.01;100.00
58534;BME280;44109;52.398;7.024;2023-09-19T04:40:56;100555.69;;;14.98;100.00
58534;BME280;44109;52.398;7.024;2023-09-19T04:43:25;100560.47;;;15.05;100.00
58534;BME280;44109;52.398;7.024;2023-09-19T04:45:54;100557.31;;;15.00;100.00
58534;BME280;44109;52.398;7.024;2023-09-19T04:48:22;100556.16;;;14.86;100.00
58534;BME280;44109;52.398;7.024;2023-09-19T04:50:51;100565.31;;;14.90;100.00
58534;BME280;44109;52.398;7.024;2023-09-19T04:53:19;100566.91;;;14.91;100.00
58534;BME280;44109;52.398;7.024;2023-09-19T04:55:51;100571.75;;;14.73;100.00
58534;BME280;44109;52.398;7.024;2023-09-19T04:58:21;100575.34;;;14.81;100.00
58534;BME280;44109;52.398;7.024;2023-09-19T05:00:49;100575.72;;;14.79;100.00
58534;BME280;44109;52.398;7.024;2023-09-19T05:03:18;100577.31;;;14.80;100.00
58534;BME280;44109;52.398;7.024;2023-09-19T05:05:46;100572.56;;;14.74;100.00
58534;BME280;44109;52.398;7.024;2023-09-19T05:08:14;100574.16;;;14.75;100.00
58534;BME280;44109;52.398;7.024;2023-09-19T05:10:41;100572.56;;;14.66;100.00
58534;BME280;44109;52.398;7.024;2023-09-19T05:13:11;100580.56;;;14.68;100.00
58534;BME280;44109;52.398;7.024;2023-09-19T05:15:39;100577.34;;;14.66;100.00
58534;BME280;44109;52.398;7.024;2023-09-19T05:18:06;100583.72;;;14.70;100.00
58534;BME280;44109;52.398;7.024;2023-09-19T05:20:34;100567.00;;;14.63;100.00
58534;BME280;44109;52.398;7.024;2023-09-19T05:23:05;100580.53;;;14.75;100.00
58534;BME280;44109;52.398;7.024;2023-09-19T05:25:39;100577.34;;;14.69;100.00
58534;BME280;44109;52.398;7.024;2023-09-19T05:28:11;100575.38;;;14.63;100.00
58534;BME280;44109;52.398;7.024;2023-09-19T05:30:41;100573.34;;;14.74;100.00
58534;BME280;44109;52.398;7.024;2023-09-19T05:33:09;100577.34;;;14.73;100.00
58534;BME280;44109;52.398;7.024;2023-09-19T05:35:37;100574.97;;;14.68;100.00
58534;BME280;44109;52.398;7.024;2023-09-19T05:38:05;100578.19;;;14.52;100.00
58534;BME280;44109;52.398;7.024;2023-09-19T05:40:35;100569.41;;;14.61;100.00
58534;BME280;44109;52.398;7.024;2023-09-19T05:43:04;100593.34;;;14.58;100.00
58534;BME280;44109;52.398;7.024;2023-09-19T05:45:34;100569.41;;;14.46;100.00
58534;BME280;44109;52.398;7.024;2023-09-19T05:48:08;100594.94;;;14.63;100.00
58534;BME280;44109;52.398;7.024;2023-09-19T05:50:37;100592.91;;;14.70;100.00
58534;BME280;44109;52.398;7.024;2023-09-19T05:53:05;100587.34;;;14.63;100.00
58534;BME280;44109;52.398;7.024;2023-09-19T05:55:33;100599.28;;;14.71;100.00
58534;BME280;44109;52.398;7.024;2023-09-19T05:58:01;100596.84;;;14.80;100.00
58534;BME280;44109;52.398;7.024;2023-09-19T06:00:29;100597.25;;;14.86;100.00
58534;BME280;44109;52.398;7.024;2023-09-19T06:02:59;100596.78;;;15.02;100.00
58534;BME280;44109;52.398;7.024;2023-09-19T06:05:27;100593.19;;;15.08;100.00
58534;BME280;44109;52.398;7.024;2023-09-19T06:07:56;100581.94;;;15.19;100.00
58534;BME280;44109;52.398;7.024;2023-09-19T06:10:26;100588.72;;;15.21;100.00
58534;BME280;44109;52.398;7.024;2023-09-19T06:12:55;100589.44;;;15.36;100.00
58534;BME280;44109;52.398;7.024;2023-09-19T06:15:24;100592.16;;;15.51;100.00
58534;BME280;44109;52.398;7.024;2023-09-19T06:17:53;100585.75;;;15.54;100.00
58534;BME280;44109;52.398;7.024;2023-09-19T06:20:24;100592.06;;;15.72;100.00
58534;BME280;44109;52.398;7.024;2023-09-19T06:22:53;100595.50;;;15.90;100.00
58534;BME280;44109;52.398;7.024;2023-09-19T06:25:21;100599.22;;;15.73;100.00
58534;BME280;44109;52.398;7.024;2023-09-19T06:27:50;100613.53;;;15.82;100.00
58534;BME280;44109;52.398;7.024;2023-09-19T06:30:20;100617.25;;;15.65;100.00
58534;BME280;44109;52.398;7.024;2023-09-19T06:32:49;100613.22;;;15.73;100.00
58534;BME280;44109;52.398;7.024;2023-09-19T06:35:16;100618.91;;;15.48;100.00
58534;BME280;44109;52.398;7.024;2023-09-19T06:37:45;100630.06;;;15.59;100.00
58534;BME280;44109;52.398;7.024;2023-09-19T06:40:14;100632.53;;;15.39;100.00
58534;BME280;44109;52.398;7.024;2023-09-19T06:42:44;100627.38;;;15.37;100.00
58534;BME280;44109;52.398;7.024;2023-09-19T06:45:13;100628.94;;;15.38;100.00
58534;BME280;44109;52.398;7.024;2023-09-19T06:47:44;100634.03;;;15.58;100.00
58534;BME280;44109;52.398;7.024;2023-09-19T06:50:15;100625.22;;;15.70;100.00
58534;BME280;44109;52.398;7.024;2023-09-19T06:52:46;100629.28;;;15.55;100.00
58534;BME280;44109;52.398;7.024;2023-09-19T06:55:18;100636.88;;;15.54;100.00
58534;BME280;44109;52.398;7.024;2023-09-19T06:57:46;100628.88;;;15.53;100.00
58534;BME280;44109;52.398;7.024;2023-09-19T07:00:15;100633.53;;;15.81;100.00
58534;BME280;44109;52.398;7.024;2023-09-19T07:02:44;100638.06;;;16.16;100.00
58534;BME280;44109;52.398;7.024;2023-09-19T07:05:12;100637.13;;;16.33;100.00
58534;BME280;44109;52.398;7.024;2023-09-19T07:07:40;100629.81;;;16.46;100.00
58534;BME280;44109;52.398;7.024;2023-09-19T07:10:10;100623.13;;;16.78;100.00
58534;BME280;44109;52.398;7.024;2023-09-19T07:12:40;100631.06;;;16.83;100.00
58534;BME280;44109;52.398;7.024;2023-09-19T07:15:09;100626.03;;;17.02;100.00
58534;BME280;44109;52.398;7.024;2023-09-19T07:17:37;100631.47;;;17.16;100.00
58534;BME280;44109;52.398;7.024;2023-09-19T07:20:06;100624.84;;;17.33;100.00
58534;BME280;44109;52.398;7.024;2023-09-19T07:22:34;100624.19;;;17.53;100.00
58534;BME280;44109;52.398;7.024;2023-09-19T07:25:02;100621.38;;;17.53;100.00
58534;BME280;44109;52.398;7.024;2023-09-19T07:27:32;100627.88;;;17.46;100.00
58534;BME280;44109;52.398;7.024;2023-09-19T07:29:59;100626.19;;;17.52;100.00
58534;BME280;44109;52.398;7.024;2023-09-19T07:32:27;100629.78;;;17.53;100.00
58534;BME280;44109;52.398;7.024;2023-09-19T07:34:55;100625.75;;;17.84;100.00
58534;BME280;44109;52.398;7.024;2023-09-19T07:37:23;100634.19;;;17.23;100.00
58534;BME280;44109;52.398;7.024;2023-09-19T07:39:55;100627.63;;;17.03;100.00
58534;BME280;44109;52.398;7.024;2023-09-19T07:42:25;100631.19;;;16.72;100.00
58534;BME280;44109;52.398;7.024;2023-09-19T07:44:55;100628.72;;;16.78;100.00
58534;BME280;44109;52.398;7.024;2023-09-19T07:47:22;100636.34;;;16.78;100.00
58534;BME280;44109;52.398;7.024;2023-09-19T07:49:50;100636.75;;;16.76;100.00
58534;BME280;44109;52.398;7.024;2023-09-19T07:52:18;100638.94;;;16.95;100.00
58534;BME280;44109;52.398;7.024;2023-09-19T07:54:48;100639.34;;;17.28;100.00
58534;BME280;44109;52.398;7.024;2023-09-19T07:57:16;100642.56;;;17.27;100.00
58534;BME280;44109;52.398;7.024;2023-09-19T07:59:44;100642.19;;;17.24;100.00
58534;BME280;44109;52.398;7.024;2023-09-19T08:02:13;100642.81;;;17.05;100.00
58534;BME280;44109;52.398;7.024;2023-09-19T08:04:44;100632.56;;;17.56;100.00
58534;BME280;44109;52.398;7.024;2023-09-19T08:07:13;100642.91;;;17.63;100.00
58534;BME280;44109;52.398;7.024;2023-09-19T08:09:40;100638.84;;;17.94;100.00
58534;BME280;44109;52.398;7.024;2023-09-19T08:12:12;100656.41;;;17.71;100.00
58534;BME280;44109;52.398;7.024;2023-09-19T08:14:40;100647.81;;;17.55;100.00
58534;BME280;44109;52.398;7.024;2023-09-19T08:17:08;100652.34;;;17.76;100.00
58534;BME280;44109;52.398;7.024;2023-09-19T08:19:37;100666.44;;;17.38;100.00
58534;BME280;44109;52.398;7.024;2023-09-19T08:22:08;100664.84;;;17.37;100.00
58534;BME280;44109;52.398;7.024;2023-09-19T08:24:36;100662.59;;;17.25;100.00
58534;BME280;44109;52.398;7.024;2023-09-19T08:27:04;100656.44;;;17.37;100.00
58534;BME280;44109;52.398;7.024;2023-09-19T08:29:35;100660.75;;;17.45;100.00
58534;BME280;44109;52.398;7.024;2023-09-19T08:32:03;100663.16;;;17.43;100.00
58534;BME280;44109;52.398;7.024;2023-09-19T08:34:31;100653.13;;;17.46;100.00
58534;BME280;44109;52.398;7.024;2023-09-19T08:37:01;100653.41;;;17.55;100.00
58534;BME280;44109;52.398;7.024;2023-09-19T08:39:29;100658.94;;;17.62;100.00
58534;BME280;44109;52.398;7.024;2023-09-19T08:42:00;100667.22;;;17.39;100.00
58534;BME280;44109;52.398;7.024;2023-09-19T08:44:28;100662.06;;;17.37;100.00
58534;BME280;44109;52.398;7.024;2023-09-19T08:47:04;100670.44;;;17.41;100.00
58534;BME280;44109;52.398;7.024;2023-09-19T08:49:41;100671.69;;;17.36;100.00
58534;BME280;44109;52.398;7.024;2023-09-19T08:52:28;100663.84;;;17.55;100.00
58534;BME280;44109;52.398;7.024;2023-09-19T08:55:06;100663.13;;;17.47;100.00
58534;BME280;44109;52.398;7.024;2023-09-19T08:57:38;100658.78;;;17.42;100.00
58534;BME280;44109;52.398;7.024;2023-09-19T09:00:16;100659.38;;;17.57;100.00
58534;BME280;44109;52.398;7.024;2023-09-19T09:02:46;100665.00;;;17.88;100.00
58534;BME280;44109;52.398;7.024;2023-09-19T09:05:17;100653.03;;;17.84;100.00
58534;BME280;44109;52.398;7.024;2023-09-19T09:07:51;100651.53;;;17.75;100.00
58534;BME280;44109;52.398;7.024;2023-09-19T09:10:22;100653.91;;;17.81;100.00
58534;BME280;44109;52.398;7.024;2023-09-19T09:12:51;100648.47;;;17.93;100.00
58534;BME280;44109;52.398;7.024;2023-09-19T09:15:21;100651.41;;;17.86;100.00
58534;BME280;44109;52.398;7.024;2023-09-19T09:17:51;100652.31;;;18.03;100.00
58534;BME280;44109;52.398;7.024;2023-09-19T09:20:20;100662.34;;;18.04;100.00
58534;BME280;44109;52.398;7.024;2023-09-19T09:22:52;100654.81;;;17.97;100.00
58534;BME280;44109;52.398;7.024;2023-09-19T09:25:21;100649.91;;;18.05;100.00
58534;BME280;44109;52.398;7.024;2023-09-19T09:28:00;100653.81;;;18.35;100.00
58534;BME280;44109;52.398;7.024;2023-09-19T09:30:35;100660.16;;;18.39;100.00
58534;BME280;44109;52.398;7.024;2023-09-19T09:33:10;100652.00;;;18.48;100.00
58534;BME280;44109;52.398;7.024;2023-09-19T09:35:48;100663.25;;;17.97;100.00
58534;BME280;44109;52.398;7.024;2023-09-19T09:38:20;100661.94;;;18.29;100.00
58534;BME280;44109;52.398;7.024;2023-09-19T09:40:52;100660.13;;;18.42;100.00
58534;BME280;44109;52.398;7.024;2023-09-19T09:43:30;100653.41;;;18.60;100.00
58534;BME280;44109;52.398;7.024;2023-09-19T09:46:07;100643.38;;;18.82;100.00
58534;BME280;44109;52.398;7.024;2023-09-19T09:48:59;100650.47;;;18.90;100.00
58534;BME280;44109;52.398;7.024;2023-09-19T09:51:45;100651.41;;;19.23;100.00
58534;BME280;44109;52.398;7.024;2023-09-19T09:54:26;100646.63;;;19.20;100.00
58534;BME280;44109;52.398;7.024;2023-09-19T09:57:01;100637.34;;;19.04;100.00
58534;BME280;44109;52.398;7.024;2023-09-19T09:59:52;100642.66;;;18.78;100.00
58534;BME280;44109;52.398;7.024;2023-09-19T10:02:26;100646.63;;;18.81;100.00
58534;BME280;44109;52.398;7.024;2023-09-19T10:05:11;100654.00;;;19.14;100.00
58534;BME280;44109;52.398;7.024;2023-09-19T10:07:48;100643.84;;;19.00;100.00
58534;BME280;44109;52.398;7.024;2023-09-19T10:10:31;100644.63;;;19.01;100.00
58534;BME280;44109;52.398;7.024;2023-09-19T10:13:11;100647.88;;;18.99;100.00
58534;BME280;44109;52.398;7.024;2023-09-19T10:15:42;100648.09;;;19.29;100.00
58534;BME280;44109;52.398;7.024;2023-09-19T10:18:15;100632.19;;;19.38;100.00
58534;BME280;44109;52.398;7.024;2023-09-19T10:20:46;100634.75;;;19.13;100.00
58534;BME280;44109;52.398;7.024;2023-09-19T10:23:17;100636.53;;;19.43;100.00
58534;BME280;44109;52.398;7.024;2023-09-19T10:25:50;100636.91;;;19.25;100.00
58534;BME280;44109;52.398;7.024;2023-09-19T10:28:20;100646.06;;;19.09;100.00
58534;BME280;44109;52.398;7.024;2023-09-19T10:30:49;100645.53;;;19.34;100.00
58534;BME280;44109;52.398;7.024;2023-09-19T10:33:20;100642.06;;;19.46;100.00
58534;BME280;44109;52.398;7.024;2023-09-19T10:35:49;100633.22;;;19.28;100.00
58534;BME280;44109;52.398;7.024;2023-09-19T10:38:24;100627.25;;;19.26;100.00
58534;BME280;44109;52.398;7.024;2023-09-19T10:40:56;100644.69;;;19.37;100.00
58534;BME280;44109;52.398;7.024;2023-09-19T10:43:29;100640.56;;;19.62;100.00
58534;BME280;44109;52.398;7.024;2023-09-19T10:46:01;100642.91;;;19.83;100.00
58534;BME280;44109;52.398;7.024;2023-09-19T10:48:30;100647.28;;;19.68;100.00
58534;BME280;44109;52.398;7.024;2023-09-19T10:51:02;100644.31;;;19.91;100.00
58534;BME280;44109;52.398;7.024;2023-09-19T10:53:42;100647.78;;;20.32;100.00
58534;BME280;44109;52.398;7.024;2023-09-19T10:56:21;100648.75;;;20.58;100.00
58534;BME280;44109;52.398;7.024;2023-09-19T10:59:05;100645.72;;;20.16;100.00
58534;BME280;44109;52.398;7.024;2023-09-19T11:01:42;100646.28;;;20.60;100.00
58534;BME280;44109;52.398;7.024;2023-09-19T11:04:24;100638.19;;;20.13;100.00
58534;BME280;44109;52.398;7.024;2023-09-19T11:07:03;100640.59;;;19.78;100.00
58534;BME280;44109;52.398;7.024;2023-09-19T11:09:45;100640.53;;;19.98;100.00
58534;BME280;44109;52.398;7.024;2023-09-19T11:12:49;100633.06;;;20.40;100.00
58534;BME280;44109;52.398;7.024;2023-09-19T11:18:53;100626.56;;;20.27;100.00
58534;BME280;44109;52.398;7.024;2023-09-19T11:21:53;100623.28;;;20.28;100.00
58534;BME280;44109;52.398;7.024;2023-09-19T11:24:31;100627.75;;;20.42;100.00
58534;BME280;44109;52.398;7.024;2023-09-19T11:27:13;100629.47;;;20.40;100.00
58534;BME280;44109;52.398;7.024;2023-09-19T11:29:45;100622.56;;;20.41;100.00
58534;BME280;44109;52.398;7.024;2023-09-19T11:32:13;100623.19;;;20.65;100.00
58534;BME280;44109;52.398;7.024;2023-09-19T11:34:44;100614.97;;;20.99;100.00
58534;BME280;44109;52.398;7.024;2023-09-19T11:40:37;100602.25;;;20.78;100.00
58534;BME280;44109;52.398;7.024;2023-09-19T11:43:32;100596.44;;;20.86;100.00
58534;BME280;44109;52.398;7.024;2023-09-19T11:46:08;100584.59;;;20.91;100.00
58534;BME280;44109;52.398;7.024;2023-09-19T11:48:38;100588.75;;;21.28;100.00
58534;BME280;44109;52.398;7.024;2023-09-19T11:51:17;100588.81;;;20.70;100.00
58534;BME280;44109;52.398;7.024;2023-09-19T11:53:49;100594.81;;;20.39;100.00
58534;BME280;44109;52.398;7.024;2023-09-19T11:56:19;100599.50;;;20.46;100.00
58534;BME280;44109;52.398;7.024;2023-09-19T11:58:49;100586.78;;;20.70;100.00
58534;BME280;44109;52.398;7.024;2023-09-19T12:01:25;100592.66;;;21.05;100.00
58534;BME280;44109;52.398;7.024;2023-09-19T12:03:58;100592.41;;;20.99;100.00
58534;BME280;44109;52.398;7.024;2023-09-19T12:06:29;100581.56;;;20.85;100.00
58534;BME280;44109;52.398;7.024;2023-09-19T12:08:59;100580.69;;;21.01;100.00
58534;BME280;44109;52.398;7.024;2023-09-19T12:11:30;100580.63;;;20.88;100.00
58534;BME280;44109;52.398;7.024;2023-09-19T12:14:00;100573.91;;;20.98;100.00
58534;BME280;44109;52.398;7.024;2023-09-19T12:16:29;100587.47;;;21.03;100.00
58534;BME280;44109;52.398;7.024;2023-09-19T12:19:17;100577.41;;;21.44;100.00
58534;BME280;44109;52.398;7.024;2023-09-19T12:21:54;100574.22;;;21.42;100.00
58534;BME280;44109;52.398;7.024;2023-09-19T12:24:22;100569.00;;;21.28;100.00
58534;BME280;44109;52.398;7.024;2023-09-19T12:26:53;100572.97;;;20.89;100.00
58534;BME280;44109;52.398;7.024;2023-09-19T12:29:23;100583.41;;;20.75;100.00
58534;BME280;44109;52.398;7.024;2023-09-19T12:31:53;100586.28;;;20.88;100.00
58534;BME280;44109;52.398;7.024;2023-09-19T12:34:26;100579.66;;;20.95;100.00
58534;BME280;44109;52.398;7.024;2023-09-19T12:37:08;100586.56;;;21.07;100.00
58534;BME280;44109;52.398;7.024;2023-09-19T12:39:48;100572.97;;;20.89;100.00
58534;BME280;44109;52.398;7.024;2023-09-19T12:42:19;100577.28;;;20.93;100.00
58534;BME280;44109;52.398;7.024;2023-09-19T12:44:50;100559.03;;;20.69;100.00
58534;BME280;44109;52.398;7.024;2023-09-19T12:47:23;100560.63;;;20.70;100.00
58534;BME280;44109;52.398;7.024;2023-09-19T12:50:11;100553.22;;;20.89;100.00
58534;BME280;44109;52.398;7.024;2023-09-19T12:52:45;100560.63;;;21.12;100.00
58534;BME280;44109;52.398;7.024;2023-09-19T12:55:22;100556.56;;;20.71;100.00
58534;BME280;44109;52.398;7.024;2023-09-19T12:58:08;100555.69;;;20.74;100.00
58534;BME280;44109;52.398;7.024;2023-09-19T13:00:38;100561.50;;;20.96;100.00
58534;BME280;44109;52.398;7.024;2023-09-19T13:03:19;100556.69;;;21.22;100.00
58534;BME280;44109;52.398;7.024;2023-09-19T13:05:55;100558.22;;;20.97;100.00
58534;BME280;44109;52.398;7.024;2023-09-19T13:08:26;100554.97;;;20.99;100.00
58534;BME280;44109;52.398;7.024;2023-09-19T13:11:07;100557.78;;;21.12;100.00